sensor_id;sensor_type;location;lat;lon;timestamp;P1;durP1;ratioP1;P2;durP2;ratioP2
2055;SDS011;1033;52.560;13.374;2022-10-22T00:02:03;16.93;;;12.87;;
2055;SDS011;1033;52.560;13.374;2022-10-22T00:04:33;21.33;;;12.77;;
2055;SDS011;1033;52.560;13.374;2022-10-22T00:07:04;18.87;;;13.67;;
2055;SDS011;1033;52.560;13.374;2022-10-22T00:09:33;20.90;;;12.70;;
2055;SDS011;1033;52.560;13.374;2022-10-22T00:12:02;16.67;;;12.30;;
2055;SDS011;1033;52.560;13.374;2022-10-22T00:14:32;18.07;;;14.30;;
2055;SDS011;1033;52.560;13.374;2022-10-22T00:17:04;19.00;;;15.47;;
2055;SDS011;1033;52.560;13.374;2022-10-22T00:19:37;19.13;;;12.20;;
2055;SDS011;1033;52.560;13.374;2022-10-22T00:22:08;14.90;;;12.23;;
2055;SDS011;1033;52.560;13.374;2022-10-22T00:24:37;18.07;;;13.50;;
2055;SDS011;1033;52.560;13.374;2022-10-22T00:27:08;18.40;;;13.20;;
2055;SDS011;1033;52.560;13.374;2022-10-22T00:29:38;14.77;;;13.20;;
2055;SDS011;1033;52.560;13.374;2022-10-22T00:32:07;15.70;;;11.73;;
2055;SDS011;1033;52.560;13.374;2022-10-22T00:34:36;14.90;;;12.07;;
2055;SDS011;1033;52.560;13.374;2022-10-22T00:37:05;12.50;;;11.20;;
2055;SDS011;1033;52.560;13.374;2022-10-22T00:39:35;17.60;;;12.77;;
2055;SDS011;1033;52.560;13.374;2022-10-22T00:42:05;18.00;;;12.40;;
2055;SDS011;1033;52.560;13.374;2022-10-22T00:47:27;12.83;;;10.23;;
2055;SDS011;1033;52.560;13.374;2022-10-22T00:50:00;13.70;;;12.00;;
2055;SDS011;1033;52.560;13.374;2022-10-22T00:52:33;16.53;;;12.33;;
2055;SDS011;1033;52.560;13.374;2022-10-22T00:55:03;14.40;;;11.50;;
2055;SDS011;1033;52.560;13.374;2022-10-22T00:57:33;13.27;;;11.83;;
2055;SDS011;1033;52.560;13.374;2022-10-22T01:00:03;15.40;;;11.87;;
2055;SDS011;1033;52.560;13.374;2022-10-22T01:02:33;18.20;;;12.20;;
2055;SDS011;1033;52.560;13.374;2022-10-22T01:05:03;14.13;;;10.33;;
2055;SDS011;1033;52.560;13.374;2022-10-22T01:07:34;14.50;;;12.00;;
2055;SDS011;1033;52.560;13.374;2022-10-22T01:10:07;14.00;;;11.40;;
2055;SDS011;1033;52.560;13.374;2022-10-22T01:12:44;19.57;;;13.33;;
2055;SDS011;1033;52.560;13.374;2022-10-22T01:15:21;14.43;;;11.40;;
2055;SDS011;1033;52.560;13.374;2022-10-22T01:17:59;19.10;;;12.83;;
2055;SDS011;1033;52.560;13.374;2022-10-22T01:20:39;16.80;;;13.23;;
2055;SDS011;1033;52.560;13.374;2022-10-22T01:23:26;19.27;;;11.80;;
2055;SDS011;1033;52.560;13.374;2022-10-22T01:26:23;15.50;;;11.47;;
2055;SDS011;1033;52.560;13.374;2022-10-22T01:29:01;16.47;;;10.93;;
2055;SDS011;1033;52.560;13.374;2022-10-22T01:31:37;16.50;;;13.50;;
2055;SDS011;1033;52.560;13.374;2022-10-22T01:34:11;18.63;;;12.63;;
2055;SDS011;1033;52.560;13.374;2022-10-22T01:36:42;21.13;;;13.10;;
2055;SDS011;1033;52.560;13.374;2022-10-22T01:39:12;19.70;;;13.20;;
2055;SDS011;1033;52.560;13.374;2022-10-22T01:41:43;16.33;;;11.63;;
2055;SDS011;1033;52.560;13.374;2022-10-22T01:44:24;16.13;;;12.67;;
2055;SDS011;1033;52.560;13.374;2022-10-22T01:46:56;20.17;;;12.93;;
2055;SDS011;1033;52.560;13.374;2022-10-22T01:49:42;16.90;;;11.90;;
2055;SDS011;1033;52.560;13.374;2022-10-22T01:52:41;15.60;;;12.27;;
2055;SDS011;1033;52.560;13.374;2022-10-22T01:55:24;15.90;;;12.10;;
2055;SDS011;1033;52.560;13.374;2022-10-22T01:58:00;21.90;;;12.90;;
2055;SDS011;1033;52.560;13.374;2022-10-22T02:00:43;13.90;;;12.40;;
2055;SDS011;1033;52.560;13.374;2022-10-22T02:03:18;17.23;;;12.40;;
2055;SDS011;1033;52.560;13.374;2022-10-22T02:05:53;17.27;;;11.73;;
2055;SDS011;1033;52.560;13.374;2022-10-22T02:08:30;18.53;;;14.30;;
2055;SDS011;1033;52.560;13.374;2022-10-22T02:11:02;20.60;;;14.03;;
2055;SDS011;1033;52.560;13.374;2022-10-22T02:13:33;17.20;;;12.27;;
2055;SDS011;1033;52.560;13.374;2022-10-22T02:16:09;15.73;;;12.00;;
2055;SDS011;1033;52.560;13.374;2022-10-22T02:18:42;20.03;;;12.97;;
2055;SDS011;1033;52.560;13.374;2022-10-22T02:21:14;14.20;;;11.40;;
2055;SDS011;1033;52.560;13.374;2022-10-22T02:23:43;15.70;;;12.93;;
2055;SDS011;1033;52.560;13.374;2022-10-22T02:26:14;17.93;;;12.53;;
2055;SDS011;1033;52.560;13.374;2022-10-22T02:28:51;14.57;;;12.13;;
2055;SDS011;1033;52.560;13.374;2022-10-22T02:31:27;16.50;;;12.03;;
2055;SDS011;1033;52.560;13.374;2022-10-22T02:34:00;17.73;;;12.67;;
2055;SDS011;1033;52.560;13.374;2022-10-22T02:36:34;18.73;;;13.33;;
2055;SDS011;1033;52.560;13.374;2022-10-22T02:39:04;14.10;;;11.40;;
2055;SDS011;1033;52.560;13.374;2022-10-22T02:41:37;14.57;;;12.07;;
2055;SDS011;1033;52.560;13.374;2022-10-22T02:44:06;19.80;;;12.30;;
2055;SDS011;1033;52.560;13.374;2022-10-22T02:46:38;17.57;;;12.10;;
2055;SDS011;1033;52.560;13.374;2022-10-22T02:49:09;16.00;;;11.37;;
2055;SDS011;1033;52.560;13.374;2022-10-22T02:51:38;15.37;;;12.60;;
2055;SDS011;1033;52.560;13.374;2022-10-22T02:54:07;14.43;;;10.57;;
2055;SDS011;1033;52.560;13.374;2022-10-22T02:56:35;17.20;;;11.40;;
2055;SDS011;1033;52.560;13.374;2022-10-22T02:59:04;14.27;;;12.17;;
2055;SDS011;1033;52.560;13.374;2022-10-22T03:01:33;16.50;;;11.87;;
2055;SDS011;1033;52.560;13.374;2022-10-22T03:04:04;16.77;;;11.53;;
2055;SDS011;1033;52.560;13.374;2022-10-22T03:06:33;12.97;;;10.67;;
2055;SDS011;1033;52.560;13.374;2022-10-22T03:09:02;15.57;;;10.63;;
2055;SDS011;1033;52.560;13.374;2022-10-22T03:11:31;17.10;;;11.83;;
2055;SDS011;1033;52.560;13.374;2022-10-22T03:13:59;16.97;;;12.10;;
2055;SDS011;1033;52.560;13.374;2022-10-22T03:16:28;19.17;;;12.20;;
2055;SDS011;1033;52.560;13.374;2022-10-22T03:18:57;15.13;;;12.17;;
2055;SDS011;1033;52.560;13.374;2022-10-22T03:21:29;18.80;;;12.40;;
2055;SDS011;1033;52.560;13.374;2022-10-22T03:24:04;15.03;;;11.70;;
2055;SDS011;1033;52.560;13.374;2022-10-22T03:26:36;20.50;;;11.43;;
2055;SDS011;1033;52.560;13.374;2022-10-22T03:29:08;16.27;;;12.83;;
2055;SDS011;1033;52.560;13.374;2022-10-22T03:31:38;20.73;;;12.10;;
2055;SDS011;1033;52.560;13.374;2022-10-22T03:34:06;18.80;;;11.80;;
2055;SDS011;1033;52.560;13.374;2022-10-22T03:36:38;17.07;;;13.10;;
2055;SDS011;1033;52.560;13.374;2022-10-22T03:39:08;16.67;;;12.00;;
2055;SDS011;1033;52.560;13.374;2022-10-22T03:41:39;16.53;;;11.67;;
2055;SDS011;1033;52.560;13.374;2022-10-22T03:44:08;17.90;;;13.10;;
2055;SDS011;1033;52.560;13.374;2022-10-22T03:46:37;15.00;;;11.10;;
2055;SDS011;1033;52.560;13.374;2022-10-22T03:49:06;24.30;;;12.53;;
2055;SDS011;1033;52.560;13.374;2022-10-22T03:51:34;19.90;;;12.70;;
2055;SDS011;1033;52.560;13.374;2022-10-22T03:54:05;18.97;;;11.60;;
2055;SDS011;1033;52.560;13.374;2022-10-22T03:56:34;15.10;;;11.17;;
2055;SDS011;1033;52.560;13.374;2022-10-22T03:59:03;15.33;;;12.00;;
2055;SDS011;1033;52.560;13.374;2022-10-22T04:01:32;17.80;;;12.37;;
2055;SDS011;1033;52.560;13.374;2022-10-22T04:04:01;16.43;;;11.23;;
2055;SDS011;1033;52.560;13.374;2022-10-22T04:06:30;15.77;;;12.30;;
2055;SDS011;1033;52.560;13.374;2022-10-22T04:08:59;15.27;;;10.73;;
2055;SDS011;1033;52.560;13.374;2022-10-22T04:11:29;17.10;;;12.07;;
2055;SDS011;1033;52.560;13.374;2022-10-22T04:13:58;14.13;;;11.20;;
2055;SDS011;1033;52.560;13.374;2022-10-22T04:16:27;15.20;;;11.80;;
2055;SDS011;1033;52.560;13.374;2022-10-22T04:18:58;27.93;;;13.83;;
2055;SDS011;1033;52.560;13.374;2022-10-22T04:21:27;16.73;;;11.77;;
2055;SDS011;1033;52.560;13.374;2022-10-22T04:23:55;22.17;;;12.83;;
2055;SDS011;1033;52.560;13.374;2022-10-22T04:26:24;15.23;;;11.70;;
2055;SDS011;1033;52.560;13.374;2022-10-22T04:28:55;13.00;;;11.50;;
2055;SDS011;1033;52.560;13.374;2022-10-22T04:31:24;13.67;;;12.13;;
2055;SDS011;1033;52.560;13.374;2022-10-22T04:33:53;14.20;;;12.30;;
2055;SDS011;1033;52.560;13.374;2022-10-22T04:36:23;16.00;;;10.30;;
2055;SDS011;1033;52.560;13.374;2022-10-22T04:38:53;12.97;;;10.10;;
2055;SDS011;1033;52.560;13.374;2022-10-22T04:41:24;14.77;;;11.17;;
2055;SDS011;1033;52.560;13.374;2022-10-22T04:43:56;14.57;;;11.27;;
2055;SDS011;1033;52.560;13.374;2022-10-22T04:46:28;15.27;;;11.40;;
2055;SDS011;1033;52.560;13.374;2022-10-22T04:49:00;16.23;;;10.80;;
2055;SDS011;1033;52.560;13.374;2022-10-22T04:51:30;15.60;;;11.50;;
2055;SDS011;1033;52.560;13.374;2022-10-22T04:53:59;16.40;;;11.93;;
2055;SDS011;1033;52.560;13.374;2022-10-22T04:56:28;18.37;;;12.50;;
2055;SDS011;1033;52.560;13.374;2022-10-22T04:59:00;16.47;;;12.33;;
2055;SDS011;1033;52.560;13.374;2022-10-22T05:01:31;14.73;;;11.37;;
2055;SDS011;1033;52.560;13.374;2022-10-22T05:04:09;15.57;;;11.60;;
2055;SDS011;1033;52.560;13.374;2022-10-22T05:06:39;16.03;;;12.03;;
2055;SDS011;1033;52.560;13.374;2022-10-22T05:09:10;15.67;;;12.03;;
2055;SDS011;1033;52.560;13.374;2022-10-22T05:11:41;21.60;;;13.23;;
2055;SDS011;1033;52.560;13.374;2022-10-22T05:14:15;14.73;;;11.10;;
2055;SDS011;1033;52.560;13.374;2022-10-22T05:16:45;15.53;;;12.00;;
2055;SDS011;1033;52.560;13.374;2022-10-22T05:19:16;15.67;;;12.47;;
2055;SDS011;1033;52.560;13.374;2022-10-22T05:21:46;16.03;;;11.50;;
2055;SDS011;1033;52.560;13.374;2022-10-22T05:24:15;17.30;;;12.30;;
2055;SDS011;1033;52.560;13.374;2022-10-22T05:26:44;19.43;;;11.70;;
2055;SDS011;1033;52.560;13.374;2022-10-22T05:29:16;21.90;;;12.30;;
2055;SDS011;1033;52.560;13.374;2022-10-22T05:31:45;17.10;;;12.33;;
2055;SDS011;1033;52.560;13.374;2022-10-22T05:34:14;16.10;;;11.27;;
2055;SDS011;1033;52.560;13.374;2022-10-22T05:36:44;17.80;;;10.83;;
2055;SDS011;1033;52.560;13.374;2022-10-22T05:39:13;16.60;;;12.23;;
2055;SDS011;1033;52.560;13.374;2022-10-22T05:41:42;19.93;;;11.73;;
2055;SDS011;1033;52.560;13.374;2022-10-22T05:44:11;20.57;;;12.27;;
2055;SDS011;1033;52.560;13.374;2022-10-22T05:46:41;14.63;;;11.63;;
2055;SDS011;1033;52.560;13.374;2022-10-22T05:49:11;16.20;;;11.90;;
2055;SDS011;1033;52.560;13.374;2022-10-22T05:51:41;15.83;;;13.10;;
2055;SDS011;1033;52.560;13.374;2022-10-22T05:54:13;15.17;;;12.07;;
2055;SDS011;1033;52.560;13.374;2022-10-22T05:56:43;12.93;;;10.50;;
2055;SDS011;1033;52.560;13.374;2022-10-22T05:59:13;20.37;;;11.40;;
2055;SDS011;1033;52.560;13.374;2022-10-22T06:01:43;18.43;;;13.43;;
2055;SDS011;1033;52.560;13.374;2022-10-22T06:04:12;16.93;;;12.23;;
2055;SDS011;1033;52.560;13.374;2022-10-22T06:06:42;15.50;;;12.27;;
2055;SDS011;1033;52.560;13.374;2022-10-22T06:09:13;15.10;;;10.80;;
2055;SDS011;1033;52.560;13.374;2022-10-22T06:11:45;12.70;;;10.43;;
2055;SDS011;1033;52.560;13.374;2022-10-22T06:14:15;20.00;;;13.40;;
2055;SDS011;1033;52.560;13.374;2022-10-22T06:16:45;16.17;;;13.00;;
2055;SDS011;1033;52.560;13.374;2022-10-22T06:19:15;20.10;;;12.50;;
2055;SDS011;1033;52.560;13.374;2022-10-22T06:21:46;17.13;;;12.93;;
2055;SDS011;1033;52.560;13.374;2022-10-22T06:24:15;13.70;;;10.00;;
2055;SDS011;1033;52.560;13.374;2022-10-22T06:26:44;15.07;;;12.97;;
2055;SDS011;1033;52.560;13.374;2022-10-22T06:29:16;13.70;;;10.87;;
2055;SDS011;1033;52.560;13.374;2022-10-22T06:31:46;16.87;;;13.30;;
2055;SDS011;1033;52.560;13.374;2022-10-22T06:34:15;15.40;;;12.50;;
2055;SDS011;1033;52.560;13.374;2022-10-22T06:36:45;22.23;;;12.77;;
2055;SDS011;1033;52.560;13.374;2022-10-22T06:39:15;18.70;;;11.90;;
2055;SDS011;1033;52.560;13.374;2022-10-22T06:41:44;17.50;;;13.83;;
2055;SDS011;1033;52.560;13.374;2022-10-22T06:44:16;19.43;;;12.20;;
2055;SDS011;1033;52.560;13.374;2022-10-22T06:46:49;17.43;;;12.27;;
2055;SDS011;1033;52.560;13.374;2022-10-22T06:49:19;16.27;;;11.87;;
2055;SDS011;1033;52.560;13.374;2022-10-22T06:51:48;24.63;;;14.40;;
2055;SDS011;1033;52.560;13.374;2022-10-22T06:54:18;17.43;;;12.70;;
2055;SDS011;1033;52.560;13.374;2022-10-22T06:56:47;15.90;;;12.23;;
2055;SDS011;1033;52.560;13.374;2022-10-22T06:59:16;21.30;;;12.53;;
2055;SDS011;1033;52.560;13.374;2022-10-22T07:01:45;19.87;;;13.47;;
2055;SDS011;1033;52.560;13.374;2022-10-22T07:04:15;14.87;;;11.13;;
2055;SDS011;1033;52.560;13.374;2022-10-22T07:06:44;17.67;;;12.87;;
2055;SDS011;1033;52.560;13.374;2022-10-22T07:09:13;14.77;;;11.47;;
2055;SDS011;1033;52.560;13.374;2022-10-22T07:11:45;21.93;;;13.23;;
2055;SDS011;1033;52.560;13.374;2022-10-22T07:14:13;16.43;;;13.17;;
2055;SDS011;1033;52.560;13.374;2022-10-22T07:16:42;15.60;;;12.60;;
2055;SDS011;1033;52.560;13.374;2022-10-22T07:19:12;15.37;;;13.43;;
2055;SDS011;1033;52.560;13.374;2022-10-22T07:21:42;13.77;;;11.73;;
2055;SDS011;1033;52.560;13.374;2022-10-22T07:24:11;17.53;;;12.87;;
2055;SDS011;1033;52.560;13.374;2022-10-22T07:26:40;15.53;;;11.97;;
2055;SDS011;1033;52.560;13.374;2022-10-22T07:29:09;17.43;;;13.43;;
2055;SDS011;1033;52.560;13.374;2022-10-22T07:31:38;16.13;;;12.57;;
2055;SDS011;1033;52.560;13.374;2022-10-22T07:34:07;15.53;;;10.77;;
2055;SDS011;1033;52.560;13.374;2022-10-22T07:36:38;14.70;;;10.57;;
2055;SDS011;1033;52.560;13.374;2022-10-22T07:39:06;15.83;;;12.27;;
2055;SDS011;1033;52.560;13.374;2022-10-22T07:41:35;10.67;;;9.57;;
2055;SDS011;1033;52.560;13.374;2022-10-22T07:44:04;16.53;;;11.40;;
2055;SDS011;1033;52.560;13.374;2022-10-22T07:46:33;14.03;;;10.60;;
2055;SDS011;1033;52.560;13.374;2022-10-22T07:49:02;14.90;;;12.20;;
2055;SDS011;1033;52.560;13.374;2022-10-22T07:51:31;13.93;;;11.40;;
2055;SDS011;1033;52.560;13.374;2022-10-22T07:54:01;15.43;;;10.83;;
2055;SDS011;1033;52.560;13.374;2022-10-22T07:56:30;15.40;;;11.07;;
2055;SDS011;1033;52.560;13.374;2022-10-22T07:58:59;16.03;;;11.20;;
2055;SDS011;1033;52.560;13.374;2022-10-22T08:01:28;15.20;;;11.90;;
2055;SDS011;1033;52.560;13.374;2022-10-22T08:03:57;14.40;;;10.40;;
2055;SDS011;1033;52.560;13.374;2022-10-22T08:06:26;14.10;;;10.40;;
2055;SDS011;1033;52.560;13.374;2022-10-22T08:08:55;11.10;;;9.43;;
2055;SDS011;1033;52.560;13.374;2022-10-22T08:11:25;12.67;;;10.50;;
2055;SDS011;1033;52.560;13.374;2022-10-22T08:13:54;13.73;;;10.57;;
2055;SDS011;1033;52.560;13.374;2022-10-22T08:16:23;16.53;;;11.77;;
2055;SDS011;1033;52.560;13.374;2022-10-22T08:19:01;14.63;;;10.40;;
2055;SDS011;1033;52.560;13.374;2022-10-22T08:21:30;14.33;;;10.07;;
2055;SDS011;1033;52.560;13.374;2022-10-22T08:23:59;11.20;;;8.97;;
2055;SDS011;1033;52.560;13.374;2022-10-22T08:26:29;16.30;;;10.80;;
2055;SDS011;1033;52.560;13.374;2022-10-22T08:28:58;18.20;;;10.63;;
2055;SDS011;1033;52.560;13.374;2022-10-22T08:31:27;12.67;;;10.70;;
2055;SDS011;1033;52.560;13.374;2022-10-22T08:33:56;13.70;;;10.43;;
2055;SDS011;1033;52.560;13.374;2022-10-22T08:36:25;14.73;;;11.03;;
2055;SDS011;1033;52.560;13.374;2022-10-22T08:38:53;18.70;;;12.10;;
2055;SDS011;1033;52.560;13.374;2022-10-22T08:41:23;19.50;;;13.53;;
2055;SDS011;1033;52.560;13.374;2022-10-22T08:43:58;13.07;;;10.17;;
2055;SDS011;1033;52.560;13.374;2022-10-22T08:46:52;13.20;;;11.83;;
2055;SDS011;1033;52.560;13.374;2022-10-22T08:49:45;11.33;;;10.13;;
2055;SDS011;1033;52.560;13.374;2022-10-22T08:52:15;14.07;;;10.87;;
2055;SDS011;1033;52.560;13.374;2022-10-22T08:54:48;16.53;;;11.07;;
2055;SDS011;1033;52.560;13.374;2022-10-22T08:57:38;15.90;;;10.40;;
2055;SDS011;1033;52.560;13.374;2022-10-22T09:00:21;15.67;;;11.87;;
2055;SDS011;1033;52.560;13.374;2022-10-22T09:02:58;18.80;;;12.63;;
2055;SDS011;1033;52.560;13.374;2022-10-22T09:05:38;15.40;;;11.07;;
2055;SDS011;1033;52.560;13.374;2022-10-22T09:08:15;14.73;;;11.17;;
2055;SDS011;1033;52.560;13.374;2022-10-22T09:10:46;15.33;;;11.07;;
2055;SDS011;1033;52.560;13.374;2022-10-22T09:13:19;20.13;;;16.03;;
2055;SDS011;1033;52.560;13.374;2022-10-22T09:15:54;13.60;;;10.97;;
2055;SDS011;1033;52.560;13.374;2022-10-22T09:18:34;17.07;;;11.47;;
2055;SDS011;1033;52.560;13.374;2022-10-22T09:21:11;13.80;;;11.00;;
2055;SDS011;1033;52.560;13.374;2022-10-22T09:23:59;13.87;;;9.87;;
2055;SDS011;1033;52.560;13.374;2022-10-22T09:26:33;13.70;;;11.07;;
2055;SDS011;1033;52.560;13.374;2022-10-22T09:29:04;14.67;;;11.50;;
2055;SDS011;1033;52.560;13.374;2022-10-22T09:31:35;21.20;;;10.70;;
2055;SDS011;1033;52.560;13.374;2022-10-22T09:34:04;13.67;;;11.40;;
2055;SDS011;1033;52.560;13.374;2022-10-22T09:36:33;10.50;;;9.50;;
2055;SDS011;1033;52.560;13.374;2022-10-22T09:39:04;14.07;;;10.23;;
2055;SDS011;1033;52.560;13.374;2022-10-22T09:41:50;16.20;;;11.30;;
2055;SDS011;1033;52.560;13.374;2022-10-22T09:44:19;11.93;;;10.50;;
2055;SDS011;1033;52.560;13.374;2022-10-22T09:46:50;16.47;;;10.40;;
2055;SDS011;1033;52.560;13.374;2022-10-22T09:49:19;13.87;;;10.10;;
2055;SDS011;1033;52.560;13.374;2022-10-22T09:51:51;12.33;;;9.67;;
2055;SDS011;1033;52.560;13.374;2022-10-22T09:54:22;12.20;;;10.17;;
2055;SDS011;1033;52.560;13.374;2022-10-22T09:56:53;15.27;;;10.80;;
2055;SDS011;1033;52.560;13.374;2022-10-22T09:59:26;11.10;;;8.67;;
2055;SDS011;1033;52.560;13.374;2022-10-22T10:02:05;12.87;;;10.03;;
2055;SDS011;1033;52.560;13.374;2022-10-22T10:04:52;10.20;;;8.30;;
2055;SDS011;1033;52.560;13.374;2022-10-22T10:07:24;11.43;;;10.13;;
2055;SDS011;1033;52.560;13.374;2022-10-22T10:09:54;11.70;;;9.00;;
2055;SDS011;1033;52.560;13.374;2022-10-22T10:12:30;14.43;;;10.63;;
2055;SDS011;1033;52.560;13.374;2022-10-22T10:15:07;14.40;;;11.53;;
2055;SDS011;1033;52.560;13.374;2022-10-22T10:17:48;14.90;;;10.97;;
2055;SDS011;1033;52.560;13.374;2022-10-22T10:20:26;14.20;;;10.77;;
2055;SDS011;1033;52.560;13.374;2022-10-22T10:23:02;13.60;;;10.20;;
2055;SDS011;1033;52.560;13.374;2022-10-22T10:25:45;11.97;;;10.30;;
2055;SDS011;1033;52.560;13.374;2022-10-22T10:28:24;13.63;;;11.10;;
2055;SDS011;1033;52.560;13.374;2022-10-22T10:31:09;13.80;;;11.40;;
2055;SDS011;1033;52.560;13.374;2022-10-22T10:33:48;13.50;;;10.70;;
2055;SDS011;1033;52.560;13.374;2022-10-22T10:36:25;13.70;;;10.83;;
2055;SDS011;1033;52.560;13.374;2022-10-22T10:39:02;11.43;;;9.97;;
2055;SDS011;1033;52.560;13.374;2022-10-22T10:41:37;20.93;;;11.93;;
2055;SDS011;1033;52.560;13.374;2022-10-22T10:44:21;15.53;;;11.60;;
2055;SDS011;1033;52.560;13.374;2022-10-22T10:47:07;13.83;;;10.53;;
2055;SDS011;1033;52.560;13.374;2022-10-22T10:49:49;15.20;;;11.83;;
2055;SDS011;1033;52.560;13.374;2022-10-22T10:52:25;13.27;;;11.40;;
2055;SDS011;1033;52.560;13.374;2022-10-22T10:55:03;14.10;;;10.73;;
2055;SDS011;1033;52.560;13.374;2022-10-22T10:57:46;15.10;;;11.27;;
2055;SDS011;1033;52.560;13.374;2022-10-22T11:00:26;17.87;;;13.13;;
2055;SDS011;1033;52.560;13.374;2022-10-22T11:06:22;17.07;;;11.47;;
2055;SDS011;1033;52.560;13.374;2022-10-22T11:08:53;14.37;;;11.47;;
2055;SDS011;1033;52.560;13.374;2022-10-22T11:11:28;13.57;;;11.40;;
2055;SDS011;1033;52.560;13.374;2022-10-22T11:14:00;15.20;;;12.80;;
2055;SDS011;1033;52.560;13.374;2022-10-22T11:16:36;13.13;;;10.60;;
2055;SDS011;1033;52.560;13.374;2022-10-22T11:19:11;16.53;;;13.90;;
2055;SDS011;1033;52.560;13.374;2022-10-22T11:21:50;16.97;;;12.97;;
2055;SDS011;1033;52.560;13.374;2022-10-22T11:24:26;17.00;;;11.90;;
2055;SDS011;1033;52.560;13.374;2022-10-22T11:27:01;15.43;;;12.07;;
2055;SDS011;1033;52.560;13.374;2022-10-22T11:29:38;15.60;;;13.93;;
2055;SDS011;1033;52.560;13.374;2022-10-22T11:32:11;21.20;;;12.77;;
2055;SDS011;1033;52.560;13.374;2022-10-22T11:34:44;15.33;;;11.43;;
2055;SDS011;1033;52.560;13.374;2022-10-22T11:37:17;17.60;;;12.80;;
2055;SDS011;1033;52.560;13.374;2022-10-22T11:39:48;22.33;;;14.50;;
2055;SDS011;1033;52.560;13.374;2022-10-22T11:42:21;14.93;;;12.83;;
2055;SDS011;1033;52.560;13.374;2022-10-22T11:44:59;18.70;;;14.27;;
2055;SDS011;1033;52.560;13.374;2022-10-22T11:47:31;16.80;;;13.27;;
2055;SDS011;1033;52.560;13.374;2022-10-22T11:50:18;17.07;;;14.20;;
2055;SDS011;1033;52.560;13.374;2022-10-22T11:52:59;18.57;;;12.47;;
2055;SDS011;1033;52.560;13.374;2022-10-22T11:55:32;16.57;;;12.93;;
2055;SDS011;1033;52.560;13.374;2022-10-22T11:58:31;17.47;;;12.50;;
2055;SDS011;1033;52.560;13.374;2022-10-22T12:01:17;15.67;;;12.47;;
2055;SDS011;1033;52.560;13.374;2022-10-22T12:03:51;15.50;;;13.47;;
2055;SDS011;1033;52.560;13.374;2022-10-22T12:09:32;13.20;;;11.80;;
2055;SDS011;1033;52.560;13.374;2022-10-22T12:12:11;13.90;;;10.63;;
2055;SDS011;1033;52.560;13.374;2022-10-22T12:14:51;12.63;;;10.90;;
2055;SDS011;1033;52.560;13.374;2022-10-22T12:17:22;14.20;;;10.93;;
2055;SDS011;1033;52.560;13.374;2022-10-22T12:19:54;11.13;;;9.37;;
2055;SDS011;1033;52.560;13.374;2022-10-22T12:22:29;10.10;;;8.80;;
2055;SDS011;1033;52.560;13.374;2022-10-22T12:25:08;10.10;;;9.20;;
2055;SDS011;1033;52.560;13.374;2022-10-22T12:27:43;19.67;;;9.57;;
2055;SDS011;1033;52.560;13.374;2022-10-22T12:30:17;12.53;;;9.40;;
2055;SDS011;1033;52.560;13.374;2022-10-22T12:32:50;9.70;;;8.37;;
2055;SDS011;1033;52.560;13.374;2022-10-22T12:35:22;13.17;;;7.20;;
2055;SDS011;1033;52.560;13.374;2022-10-22T12:37:54;13.13;;;7.50;;
2055;SDS011;1033;52.560;13.374;2022-10-22T12:40:26;8.00;;;7.17;;
2055;SDS011;1033;52.560;13.374;2022-10-22T12:42:56;8.27;;;7.40;;
2055;SDS011;1033;52.560;13.374;2022-10-22T12:45:29;8.20;;;6.50;;
2055;SDS011;1033;52.560;13.374;2022-10-22T12:48:02;8.33;;;5.80;;
2055;SDS011;1033;52.560;13.374;2022-10-22T12:50:34;10.43;;;6.20;;
2055;SDS011;1033;52.560;13.374;2022-10-22T12:53:09;16.47;;;5.63;;
2055;SDS011;1033;52.560;13.374;2022-10-22T12:55:43;6.43;;;5.53;;
2055;SDS011;1033;52.560;13.374;2022-10-22T12:58:15;9.23;;;6.07;;
2055;SDS011;1033;52.560;13.374;2022-10-22T13:00:46;9.00;;;4.83;;
2055;SDS011;1033;52.560;13.374;2022-10-22T13:03:24;7.47;;;5.47;;
2055;SDS011;1033;52.560;13.374;2022-10-22T13:06:13;6.93;;;5.00;;
2055;SDS011;1033;52.560;13.374;2022-10-22T13:08:54;4.90;;;4.30;;
2055;SDS011;1033;52.560;13.374;2022-10-22T13:11:38;7.80;;;4.77;;
2055;SDS011;1033;52.560;13.374;2022-10-22T13:14:16;6.93;;;4.67;;
2055;SDS011;1033;52.560;13.374;2022-10-22T13:17:01;6.50;;;3.77;;
2055;SDS011;1033;52.560;13.374;2022-10-22T13:19:35;4.90;;;3.93;;
2055;SDS011;1033;52.560;13.374;2022-10-22T13:24:51;5.10;;;4.30;;
2055;SDS011;1033;52.560;13.374;2022-10-22T13:27:29;5.50;;;4.83;;
2055;SDS011;1033;52.560;13.374;2022-10-22T13:30:00;5.10;;;4.13;;
2055;SDS011;1033;52.560;13.374;2022-10-22T13:32:36;4.30;;;3.43;;
2055;SDS011;1033;52.560;13.374;2022-10-22T13:35:05;11.03;;;5.33;;
2055;SDS011;1033;52.560;13.374;2022-10-22T13:37:39;6.40;;;4.43;;
2055;SDS011;1033;52.560;13.374;2022-10-22T13:40:10;6.13;;;4.30;;
2055;SDS011;1033;52.560;13.374;2022-10-22T13:42:41;11.77;;;3.90;;
2055;SDS011;1033;52.560;13.374;2022-10-22T13:45:10;5.67;;;3.37;;
2055;SDS011;1033;52.560;13.374;2022-10-22T13:47:41;7.27;;;3.67;;
2055;SDS011;1033;52.560;13.374;2022-10-22T13:50:16;10.00;;;4.40;;
2055;SDS011;1033;52.560;13.374;2022-10-22T13:52:46;7.00;;;4.57;;
2055;SDS011;1033;52.560;13.374;2022-10-22T13:55:20;5.80;;;3.07;;
2055;SDS011;1033;52.560;13.374;2022-10-22T13:57:53;6.50;;;3.67;;
2055;SDS011;1033;52.560;13.374;2022-10-22T14:00:24;5.83;;;4.57;;
2055;SDS011;1033;52.560;13.374;2022-10-22T14:02:53;7.33;;;4.77;;
2055;SDS011;1033;52.560;13.374;2022-10-22T14:05:24;5.57;;;3.70;;
2055;SDS011;1033;52.560;13.374;2022-10-22T14:07:53;3.60;;;2.93;;
2055;SDS011;1033;52.560;13.374;2022-10-22T14:10:23;7.50;;;3.60;;
2055;SDS011;1033;52.560;13.374;2022-10-22T14:12:54;6.03;;;3.70;;
2055;SDS011;1033;52.560;13.374;2022-10-22T14:15:23;5.73;;;3.70;;
2055;SDS011;1033;52.560;13.374;2022-10-22T14:17:56;5.40;;;3.17;;
2055;SDS011;1033;52.560;13.374;2022-10-22T14:20:28;5.03;;;3.87;;
2055;SDS011;1033;52.560;13.374;2022-10-22T14:23:01;5.47;;;3.47;;
2055;SDS011;1033;52.560;13.374;2022-10-22T14:25:38;4.20;;;3.80;;
2055;SDS011;1033;52.560;13.374;2022-10-22T14:28:09;4.37;;;3.60;;
2055;SDS011;1033;52.560;13.374;2022-10-22T14:30:39;5.97;;;4.40;;
2055;SDS011;1033;52.560;13.374;2022-10-22T14:33:09;7.33;;;3.40;;
2055;SDS011;1033;52.560;13.374;2022-10-22T14:35:42;6.80;;;3.60;;
2055;SDS011;1033;52.560;13.374;2022-10-22T14:38:11;9.60;;;3.73;;
2055;SDS011;1033;52.560;13.374;2022-10-22T14:40:40;4.37;;;2.90;;
2055;SDS011;1033;52.560;13.374;2022-10-22T14:43:12;5.73;;;3.10;;
2055;SDS011;1033;52.560;13.374;2022-10-22T14:45:45;5.27;;;2.97;;
2055;SDS011;1033;52.560;13.374;2022-10-22T14:48:14;10.63;;;4.63;;
2055;SDS011;1033;52.560;13.374;2022-10-22T14:50:43;5.53;;;3.70;;
2055;SDS011;1033;52.560;13.374;2022-10-22T14:53:14;16.93;;;3.47;;
2055;SDS011;1033;52.560;13.374;2022-10-22T14:55:44;4.63;;;3.63;;
2055;SDS011;1033;52.560;13.374;2022-10-22T14:58:18;5.33;;;2.83;;
2055;SDS011;1033;52.560;13.374;2022-10-22T15:00:47;6.97;;;3.20;;
2055;SDS011;1033;52.560;13.374;2022-10-22T15:03:16;9.37;;;6.53;;
2055;SDS011;1033;52.560;13.374;2022-10-22T15:05:45;5.00;;;4.07;;
2055;SDS011;1033;52.560;13.374;2022-10-22T15:08:19;5.10;;;2.93;;
2055;SDS011;1033;52.560;13.374;2022-10-22T15:10:55;8.10;;;4.47;;
2055;SDS011;1033;52.560;13.374;2022-10-22T15:13:27;8.70;;;3.73;;
2055;SDS011;1033;52.560;13.374;2022-10-22T15:15:57;6.67;;;3.33;;
2055;SDS011;1033;52.560;13.374;2022-10-22T15:18:26;9.93;;;3.83;;
2055;SDS011;1033;52.560;13.374;2022-10-22T15:20:56;4.63;;;3.53;;
2055;SDS011;1033;52.560;13.374;2022-10-22T15:23:25;4.60;;;2.80;;
2055;SDS011;1033;52.560;13.374;2022-10-22T15:25:54;4.93;;;3.00;;